Time;durP1;ratioP1;P1;durP2;ratioP2;P2;SDS_P1;SDS_P2;PMS_P1;PMS_P2;Temp;Humidity;BMP_temperature;BMP_pressure;BME280_temperature;BME280_humidity;BME280_pressure;Samples;Min_cycle;Max_cycle;Signal;HPM_P1;HPM_P2
2023/12/11 00:00:52;;;;;;;33.13;5.43;;;;;9.60;99568.00;;;;10122133;29;20290;-84
2023/12/11 00:05:54;;;;;;;28.90;5.37;;;;;9.60;99560.00;;;;10133862;29;20269;-83
2023/12/11 00:10:55;;;;;;;35.93;6.83;;;;;9.60;99574.00;;;;10135923;29;20363;-84
2023/12/11 00:15:56;;;;;;;39.93;5.53;;;;;9.60;99572.00;;;;10129776;29;20233;-84
2023/12/11 00:20:58;;;;;;;35.03;5.30;;;;;9.60;99574.00;;;;10120364;29;20226;-84
2023/12/11 00:26:00;;;;;;;34.33;6.20;;;;;9.60;99575.00;;;;10122319;29;20231;-84
2023/12/11 00:31:01;;;;;;;31.77;5.60;;;;;9.70;99586.00;;;;10131683;29;20245;-84
2023/12/11 00:36:03;;;;;;;33.97;5.80;;;;;9.80;99591.00;;;;10117947;29;20235;-83
2023/12/11 00:41:04;;;;;;;33.37;5.50;;;;;9.70;99588.00;;;;10131153;29;20261;-83
2023/12/11 00:46:05;;;;;;;31.70;6.27;;;;;9.70;99573.00;;;;10126200;29;20697;-84
2023/12/11 00:51:13;;;;;;;39.37;5.30;;;;;9.70;99581.00;;;;10111605;29;20231;-80
2023/12/11 00:56:15;;;;;;;27.20;5.13;;;;;9.70;99578.00;;;;10120516;29;20237;-82
2023/12/11 01:01:17;;;;;;;32.67;5.07;;;;;9.80;99573.00;;;;10097880;29;20766;-83
2023/12/11 01:06:19;;;;;;;30.13;5.20;;;;;9.80;99561.00;;;;10124659;29;20926;-84
2023/12/11 01:11:20;;;;;;;30.80;6.80;;;;;9.90;99552.00;;;;10135762;29;20250;-83
2023/12/11 01:16:21;;;;;;;28.70;5.23;;;;;9.90;99551.00;;;;10116518;29;20294;-83
2023/12/11 01:21:22;;;;;;;28.23;5.33;;;;;9.90;99549.00;;;;10117017;29;20229;-83
2023/12/11 01:26:24;;;;;;;23.53;4.83;;;;;9.90;99542.00;;;;10120976;29;20222;-84
2023/12/11 01:31:25;;;;;;;34.10;5.97;;;;;9.90;99543.00;;;;10124714;29;20238;-83
2023/12/11 01:36:26;;;;;;;26.63;4.87;;;;;9.90;99528.00;;;;10126509;29;21310;-82
2023/12/11 01:41:27;;;;;;;27.17;4.30;;;;;9.80;99533.00;;;;10143863;29;20406;-83
2023/12/11 01:46:30;;;;;;;32.57;4.50;;;;;9.80;99539.00;;;;10142372;29;20221;-82
2023/12/11 01:51:32;;;;;;;19.30;5.20;;;;;9.80;99538.00;;;;10193755;28;20229;-82
2023/12/11 01:56:33;;;;;;;27.90;5.33;;;;;9.80;99539.00;;;;10119075;29;20811;-83
2023/12/11 02:01:35;;;;;;;25.13;5.13;;;;;9.70;99519.00;;;;10136079;29;20230;-78
2023/12/11 02:06:37;;;;;;;27.83;4.87;;;;;9.70;99517.00;;;;10118966;29;20825;-81
2023/12/11 02:11:38;;;;;;;32.93;5.30;;;;;9.70;99508.00;;;;10133763;29;20235;-80
2023/12/11 02:16:39;;;;;;;25.33;5.60;;;;;9.90;99506.00;;;;10129552;29;20250;-80
2023/12/11 02:21:41;;;;;;;26.63;4.90;;;;;9.90;99483.00;;;;10111547;29;20253;-80
2023/12/11 02:26:43;;;;;;;23.77;3.87;;;;;10.00;99481.00;;;;10140545;29;20594;-80
2023/12/11 02:31:44;;;;;;;16.77;4.67;;;;;10.00;99448.00;;;;10134578;29;20234;-82
2023/12/11 02:36:45;;;;;;;25.97;4.37;;;;;10.00;99460.00;;;;10133711;29;20234;-79
2023/12/11 02:41:46;;;;;;;28.57;5.17;;;;;10.00;99450.00;;;;10122374;29;20237;-82
2023/12/11 02:46:47;;;;;;;23.17;4.77;;;;;10.00;99440.00;;;;10098231;29;20258;-80
2023/12/11 02:51:49;;;;;;;32.27;5.23;;;;;10.10;99450.00;;;;10107142;29;20986;-80
2023/12/11 02:56:50;;;;;;;24.20;4.37;;;;;10.00;99437.00;;;;10113616;29;20239;-81
2023/12/11 03:01:51;;;;;;;26.57;5.23;;;;;10.00;99435.00;;;;10122007;29;20873;-81
2023/12/11 03:06:52;;;;;;;31.70;6.23;;;;;9.90;99453.00;;;;10108704;29;20219;-80
2023/12/11 03:11:54;;;;;;;21.53;3.63;;;;;9.70;99449.00;;;;10114303;29;20231;-80
2023/12/11 03:16:55;;;;;;;24.07;5.57;;;;;9.60;99454.00;;;;10118159;29;20234;-79
2023/12/11 03:21:56;;;;;;;20.60;4.40;;;;;9.50;99451.00;;;;10117424;29;20305;-78
2023/12/11 03:26:58;;;;;;;23.27;4.40;;;;;9.40;99464.00;;;;10128347;29;20233;-79
2023/12/11 03:31:59;;;;;;;22.23;4.17;;;;;9.30;99468.00;;;;10144772;29;20230;-79
2023/12/11 03:37:01;;;;;;;25.53;5.03;;;;;9.20;99474.00;;;;10103343;29;20678;-79
2023/12/11 03:42:03;;;;;;;23.40;5.00;;;;;9.10;99458.00;;;;10104421;29;20222;-78
2023/12/11 03:47:04;;;;;;;31.50;5.40;;;;;9.10;99459.00;;;;10129164;29;20232;-79
2023/12/11 03:52:05;;;;;;;17.37;4.73;;;;;9.10;99449.00;;;;10101171;29;20255;-79
2023/12/11 03:57:06;;;;;;;20.67;4.63;;;;;9.20;99447.00;;;;10125038;29;20288;-79
2023/12/11 04:02:08;;;;;;;24.93;5.57;;;;;9.20;99458.00;;;;10122290;29;20230;-77
2023/12/11 04:07:09;;;;;;;27.67;4.97;;;;;9.10;99466.00;;;;10108772;29;20220;-77
2023/12/11 04:12:10;;;;;;;29.73;4.90;;;;;9.10;99468.00;;;;10118771;29;20586;-79
2023/12/11 04:17:11;;;;;;;26.73;4.80;;;;;9.10;99459.00;;;;10138795;29;20262;-78
2023/12/11 04:22:13;;;;;;;25.53;4.80;;;;;9.10;99434.00;;;;10120222;29;20322;-79
2023/12/11 04:27:14;;;;;;;25.20;4.87;;;;;9.10;99437.00;;;;10126738;29;20258;-81
2023/12/11 04:32:15;;;;;;;22.90;5.33;;;;;9.10;99415.00;;;;10114044;29;20267;-80
2023/12/11 04:37:17;;;;;;;25.40;4.20;;;;;9.20;99431.00;;;;10130054;29;20230;-80
2023/12/11 04:42:18;;;;;;;28.20;4.67;;;;;9.20;99425.00;;;;10122917;29;20227;-81
2023/12/11 04:47:19;;;;;;;27.27;4.27;;;;;9.20;99410.00;;;;10133279;29;20226;-81
2023/12/11 04:52:20;;;;;;;19.43;4.83;;;;;9.20;99404.00;;;;10126448;29;20249;-81
2023/12/11 04:57:22;;;;;;;21.53;4.50;;;;;9.20;99420.00;;;;10132659;29;20286;-80
2023/12/11 05:02:23;;;;;;;26.37;4.93;;;;;9.20;99426.00;;;;10138836;29;20323;-81
2023/12/11 05:07:24;;;;;;;21.77;4.87;;;;;9.20;99433.00;;;;10104953;29;20249;-81
2023/12/11 05:12:25;;;;;;;29.13;5.00;;;;;9.10;99424.00;;;;10124326;29;20222;-82
2023/12/11 05:17:26;;;;;;;30.37;4.87;;;;;9.20;99435.00;;;;10109630;29;20237;-81
2023/12/11 05:22:28;;;;;;;30.37;4.37;;;;;9.20;99432.00;;;;10112931;29;21148;-81
2023/12/11 05:27:29;;;;;;;23.30;4.20;;;;;9.10;99438.00;;;;10127016;29;20260;-81
2023/12/11 05:32:31;;;;;;;28.53;4.47;;;;;9.00;99444.00;;;;10126747;29;20222;-82
2023/12/11 05:37:32;;;;;;;31.20;5.00;;;;;9.00;99435.00;;;;10115271;29;20246;-89
2023/12/11 05:42:33;;;;;;;25.97;4.60;;;;;8.90;99434.00;;;;10099265;29;20231;-89
2023/12/11 05:47:35;;;;;;;22.70;4.50;;;;;8.90;99448.00;;;;10121520;29;20234;-87
2023/12/11 05:52:36;;;;;;;29.47;4.30;;;;;8.80;99441.00;;;;10103205;29;20249;-86
2023/12/11 05:57:38;;;;;;;33.37;5.03;;;;;8.90;99455.00;;;;10110256;29;20254;-88
2023/12/11 06:02:39;;;;;;;34.10;4.67;;;;;9.10;99447.00;;;;10116617;29;20238;-87
2023/12/11 06:07:41;;;;;;;23.33;4.53;;;;;9.30;99459.00;;;;10097325;29;20320;-87
2023/12/11 06:12:42;;;;;;;29.40;5.10;;;;;9.50;99465.00;;;;10120567;29;20238;-87
2023/12/11 06:17:44;;;;;;;43.70;5.80;;;;;9.60;99472.00;;;;10106574;29;20235;-86
2023/12/11 06:22:48;;;;;;;36.70;5.50;;;;;9.60;99467.00;;;;10141148;29;20821;-87
2023/12/11 06:27:49;;;;;;;23.40;4.47;;;;;9.70;99458.00;;;;10111050;29;20222;-87
2023/12/11 06:32:53;;;;;;;25.43;5.23;;;;;9.80;99478.00;;;;10105884;29;20705;-86
2023/12/11 06:37:55;;;;;;;28.43;4.80;;;;;9.80;99463.00;;;;10118343;29;20270;-85
2023/12/11 06:42:56;;;;;;;23.73;4.60;;;;;9.80;99478.00;;;;10139966;29;20235;-86
2023/12/11 06:47:57;;;;;;;28.97;4.60;;;;;9.90;99480.00;;;;10109993;29;20247;-81
2023/12/11 06:52:58;;;;;;;22.07;4.50;;;;;9.90;99486.00;;;;10109792;29;20321;-82
2023/12/11 06:57:59;;;;;;;16.00;3.63;;;;;9.90;99500.00;;;;10122380;29;20287;-82
2023/12/11 07:03:02;;;;;;;22.83;4.10;;;;;9.90;99506.00;;;;10125199;29;20219;-82
2023/12/11 07:08:04;;;;;;;85.57;9.43;;;;;9.90;99517.00;;;;10122077;29;20231;-82
2023/12/11 07:13:05;;;;;;;17.77;3.70;;;;;10.00;99517.00;;;;10102945;29;20704;-81
2023/12/11 07:18:07;;;;;;;14.73;3.20;;;;;10.00;99528.00;;;;10108765;29;20250;-81
2023/12/11 07:23:10;;;;;;;16.20;2.73;;;;;10.00;99533.00;;;;10129095;29;20692;-84
2023/12/11 07:28:11;;;;;;;15.07;2.90;;;;;10.10;99545.00;;;;10103063;29;20237;-83
2023/12/11 07:33:12;;;;;;;14.87;3.20;;;;;10.10;99560.00;;;;10120838;29;20225;-82
2023/12/11 07:38:13;;;;;;;23.10;3.77;;;;;10.10;99531.00;;;;10121380;29;20223;-82
2023/12/11 07:43:15;;;;;;;15.37;3.13;;;;;10.10;99565.00;;;;10103563;28;20233;-82
2023/12/11 07:48:17;;;;;;;12.33;3.53;;;;;10.20;99574.00;;;;10111461;29;20227;-83
2023/12/11 07:53:18;;;;;;;11.50;2.47;;;;;10.20;99578.00;;;;10123710;29;20230;-83
2023/12/11 07:58:19;;;;;;;10.87;2.83;;;;;10.20;99603.00;;;;10123297;29;20269;-82
2023/12/11 08:03:21;;;;;;;13.50;2.77;;;;;10.20;99608.00;;;;10121697;29;21030;-82
2023/12/11 08:08:22;;;;;;;14.37;3.07;;;;;10.20;99615.00;;;;10127834;29;20273;-82
2023/12/11 08:13:23;;;;;;;13.23;3.10;;;;;10.20;99618.00;;;;10129332;29;20219;-83
2023/12/11 08:18:24;;;;;;;14.03;3.47;;;;;10.30;99636.00;;;;10101053;29;20589;-83
2023/12/11 08:23:26;;;;;;;17.97;3.53;;;;;10.30;99637.00;;;;10121630;29;20242;-83
2023/12/11 08:28:27;;;;;;;13.47;2.60;;;;;10.30;99635.00;;;;10115229;29;20254;-85
2023/12/11 08:33:29;;;;;;;13.73;2.83;;;;;10.40;99657.00;;;;10126807;29;20254;-83
2023/12/11 08:38:32;;;;;;;13.97;2.90;;;;;10.40;99677.00;;;;10124952;29;20234;-84
2023/12/11 08:43:33;;;;;;;11.63;2.83;;;;;10.50;99681.00;;;;10115545;29;20222;-82
2023/12/11 08:48:35;;;;;;;15.53;2.87;;;;;10.50;99696.00;;;;10112045;29;20302;-84
2023/12/11 08:53:37;;;;;;;10.40;2.83;;;;;10.50;99702.00;;;;10110066;29;20254;-84
2023/12/11 08:58:38;;;;;;;21.93;3.93;;;;;10.50;99716.00;;;;10112730;29;20270;-84
2023/12/11 09:03:39;;;;;;;16.37;3.50;;;;;10.50;99718.00;;;;10139992;29;20903;-84
2023/12/11 09:08:41;;;;;;;12.80;2.63;;;;;10.60;99731.00;;;;10125182;29;20805;-82
2023/12/11 09:13:42;;;;;;;17.00;2.60;;;;;10.60;99741.00;;;;10105954;29;20688;-80
2023/12/11 09:18:43;;;;;;;15.03;2.57;;;;;10.60;99743.00;;;;10108559;29;20278;-85
2023/12/11 09:23:45;;;;;;;13.97;2.33;;;;;10.60;99748.00;;;;10130889;29;20234;-82
2023/12/11 09:28:46;;;;;;;14.40;3.00;;;;;10.60;99763.00;;;;10094771;29;20335;-83
2023/12/11 09:33:53;;;;;;;19.03;3.10;;;;;10.70;99767.00;;;;10103367;29;20263;-82
2023/12/11 09:38:55;;;;;;;18.47;3.17;;;;;10.60;99778.00;;;;10129703;29;20873;-83
2023/12/11 09:43:58;;;;;;;14.73;2.40;;;;;10.70;99780.00;;;;10103357;29;20231;-84
2023/12/11 09:48:59;;;;;;;13.70;2.40;;;;;10.70;99789.00;;;;10103098;29;20305;-82
2023/12/11 09:54:03;;;;;;;16.80;2.63;;;;;10.70;99804.00;;;;10129770;29;20259;-81
2023/12/11 09:59:05;;;;;;;11.20;2.87;;;;;10.60;99799.00;;;;10103809;29;20593;-81
2023/12/11 10:04:06;;;;;;;15.90;2.77;;;;;10.70;99813.00;;;;10125270;29;20694;-82
2023/12/11 10:09:12;;;;;;;12.60;2.57;;;;;10.70;99826.00;;;;10111454;29;20226;-81
2023/12/11 10:14:14;;;;;;;10.83;2.80;;;;;10.80;99828.00;;;;10125059;29;20294;-84
2023/12/11 10:19:15;;;;;;;15.10;2.80;;;;;10.90;99835.00;;;;10141355;29;20230;-81
2023/12/11 10:24:16;;;;;;;22.63;5.07;;;;;11.00;99837.00;;;;10126985;29;20225;-81
2023/12/11 10:29:23;;;;;;;14.83;3.33;;;;;11.00;99845.00;;;;10130674;29;20215;-79
2023/12/11 10:34:40;;;;;;;19.47;3.13;;;;;11.10;99858.00;;;;10130309;29;20376;-80
2023/12/11 10:39:52;;;;;;;15.60;3.33;;;;;11.00;99862.00;;;;10104459;29;20708;-79
2023/12/11 10:44:55;;;;;;;15.23;3.77;;;;;11.00;99856.00;;;;10126081;29;20368;-79
2023/12/11 10:50:00;;;;;;;17.43;3.07;;;;;10.80;99861.00;;;;10131836;29;20281;-79
2023/12/11 10:55:02;;;;;;;19.57;3.13;;;;;10.70;99866.00;;;;10127498;29;20680;-79
2023/12/11 11:00:04;;;;;;;13.07;2.90;;;;;10.70;99866.00;;;;10121031;29;20230;-79
2023/12/11 11:05:06;;;;;;;21.07;2.90;;;;;10.90;99860.00;;;;10128884;29;20234;-80
2023/12/11 11:10:21;;;;;;;13.70;3.00;;;;;11.00;99877.00;;;;10115881;29;20231;-80
2023/12/11 11:15:24;;;;;;;14.07;3.00;;;;;11.00;99867.00;;;;10101211;29;20222;-81
2023/12/11 11:20:27;;;;;;;15.13;3.47;;;;;11.20;99869.00;;;;10118052;29;20237;-82
2023/12/11 11:25:28;;;;;;;15.43;3.13;;;;;11.30;99874.00;;;;10129957;29;20721;-82
2023/12/11 11:30:42;;;;;;;19.03;2.57;;;;;11.40;99882.00;;;;10133642;29;20233;-83
2023/12/11 11:35:46;;;;;;;14.20;3.40;;;;;11.40;99886.00;;;;10114682;29;20239;-83
2023/12/11 11:40:50;;;;;;;20.00;3.50;;;;;11.60;99888.00;;;;10131463;29;20219;-83
2023/12/11 11:45:55;;;;;;;11.77;2.50;;;;;11.50;99891.00;;;;10110819;29;20232;-82
2023/12/11 11:50:57;;;;;;;13.37;3.10;;;;;11.40;99894.00;;;;10113185;29;20474;-84
2023/12/11 11:56:01;;;;;;;9.03;2.40;;;;;11.70;99897.00;;;;10125666;29;20318;-83
2023/12/11 12:01:05;;;;;;;12.80;2.60;;;;;11.80;99899.00;;;;10117086;29;20765;-84
2023/12/11 12:06:07;;;;;;;13.10;2.70;;;;;11.80;99910.00;;;;10103823;29;20233;-84
2023/12/11 12:11:11;;;;;;;12.20;2.92;;;;;11.90;99906.00;;;;10112089;29;20230;-83
2023/12/11 12:16:26;;;;;;;14.30;2.30;;;;;12.00;99908.00;;;;10134064;29;20682;-84
2023/12/11 12:21:28;;;;;;;13.23;2.70;;;;;12.00;99911.00;;;;10104282;29;20237;-84
2023/12/11 12:26:34;;;;;;;12.23;2.50;;;;;12.00;99916.00;;;;10107795;29;20849;-82
2023/12/11 12:31:39;;;;;;;13.07;2.87;;;;;12.10;99920.00;;;;10102407;29;20262;-84
2023/12/11 12:36:42;;;;;;;12.52;3.00;;;;;12.10;99936.00;;;;10123457;29;20928;-82
2023/12/11 12:41:43;;;;;;;16.00;2.90;;;;;12.10;99926.00;;;;10117185;29;20259;-82
2023/12/11 12:46:45;;;;;;;10.55;2.65;;;;;12.00;99934.00;;;;10114025;29;20253;-82
2023/12/11 12:51:52;;;;;;;12.13;2.53;;;;;12.00;99948.00;;;;10115679;29;20231;-82
2023/12/11 12:56:58;;;;;;;9.63;2.77;;;;;12.00;99962.00;;;;10130274;29;20238;-82
2023/12/11 13:01:59;;;;;;;11.13;2.30;;;;;12.00;99959.00;;;;10118305;29;20259;-82
2023/12/11 13:07:10;;;;;;;13.63;3.20;;;;;12.00;99973.00;;;;10114541;29;20382;-83
2023/12/11 13:12:12;;;;;;;8.13;3.00;;;;;11.90;99977.00;;;;10112386;29;20237;-81
2023/12/11 13:17:13;;;;;;;10.82;3.22;;;;;11.90;99978.00;;;;10100285;29;20242;-82
2023/12/11 13:22:14;;;;;;;10.50;3.00;;;;;11.80;99984.00;;;;10104982;29;20231;-82
2023/12/11 13:27:16;;;;;;;11.88;3.25;;;;;11.70;99990.00;;;;10117580;29;20241;-83
2023/12/11 13:32:17;;;;;;;12.60;2.72;;;;;11.60;99982.00;;;;10112784;29;20772;-82
2023/12/11 13:37:25;;;;;;;15.48;2.58;;;;;11.60;99985.00;;;;10101560;29;20234;-82
2023/12/11 13:42:26;;;;;;;13.10;2.97;;;;;11.50;99981.00;;;;10106476;29;20914;-82
2023/12/11 13:47:28;;;;;;;15.47;3.20;;;;;11.50;99980.00;;;;10113769;29;20238;-82
2023/12/11 13:52:29;;;;;;;10.37;2.47;;;;;11.50;99986.00;;;;10129981;29;20762;-84
2023/12/11 13:57:33;;;;;;;15.83;3.40;;;;;11.50;99995.00;;;;10094434;29;20245;-85
2023/12/11 14:02:35;;;;;;;10.77;3.43;;;;;11.30;100017.00;;;;10131707;29;20889;-82
2023/12/11 14:07:57;;;;;;;15.67;2.70;;;;;11.30;100026.00;;;;10130199;29;20878;-86
2023/12/11 14:12:58;;;;;;;9.40;2.53;;;;;11.20;100033.00;;;;10111238;29;20309;-83
2023/12/11 14:17:59;;;;;;;12.10;2.97;;;;;11.20;100036.00;;;;10112872;29;20238;-84
2023/12/11 14:23:01;;;;;;;8.90;2.63;;;;;11.10;100025.00;;;;10110722;29;20231;-83
2023/12/11 14:28:03;;;;;;;8.30;2.33;;;;;11.20;100022.00;;;;10122100;29;20318;-82
2023/12/11 14:33:07;;;;;;;5.87;2.63;;;;;11.20;100024.00;;;;10099130;29;20917;-82
2023/12/11 14:38:08;;;;;;;13.30;2.90;;;;;11.10;100027.00;;;;10124890;29;20738;-83
2023/12/11 14:43:09;;;;;;;11.70;2.80;;;;;11.10;100039.00;;;;10102175;29;20227;-83
2023/12/11 14:48:12;;;;;;;11.67;2.80;;;;;11.00;100058.00;;;;10116845;29;20238;-83
2023/12/11 14:53:13;;;;;;;12.80;2.37;;;;;10.90;100067.00;;;;10101701;29;20230;-86
2023/12/11 14:58:15;;;;;;;13.80;2.40;;;;;10.90;100082.00;;;;10121451;29;20234;-82
2023/12/11 15:03:16;;;;;;;10.33;2.30;;;;;10.90;100090.00;;;;10119399;29;20415;-82
2023/12/11 15:08:18;;;;;;;13.70;3.00;;;;;10.80;100099.00;;;;10121049;29;20237;-83
2023/12/11 15:13:20;;;;;;;7.07;2.50;;;;;10.70;100096.00;;;;10121196;29;20839;-82
2023/12/11 15:18:21;;;;;;;11.73;2.70;;;;;10.60;100104.00;;;;10108619;29;20317;-82
2023/12/11 15:23:23;;;;;;;14.07;2.70;;;;;10.60;100104.00;;;;10122428;29;20710;-82
2023/12/11 15:28:24;;;;;;;17.93;3.10;;;;;10.50;100113.00;;;;10136684;29;21084;-83
2023/12/11 15:33:25;;;;;;;15.10;2.37;;;;;10.50;100121.00;;;;10133156;29;20321;-82
2023/12/11 15:38:26;;;;;;;15.77;3.57;;;;;10.40;100120.00;;;;10115180;29;20234;-82
2023/12/11 15:43:30;;;;;;;16.13;3.00;;;;;10.40;100127.00;;;;10105299;29;20247;-82
2023/12/11 15:48:31;;;;;;;14.27;2.73;;;;;10.30;100134.00;;;;10127381;29;20318;-82
2023/12/11 15:53:33;;;;;;;11.30;3.17;;;;;10.30;100140.00;;;;10116083;29;20227;-82
2023/12/11 15:58:34;;;;;;;12.37;2.27;;;;;10.20;100138.00;;;;10127818;29;20866;-83
2023/12/11 16:03:38;;;;;;;12.70;2.23;;;;;10.20;100139.00;;;;10117085;29;20322;-82
2023/12/11 16:08:40;;;;;;;9.50;2.17;;;;;10.10;100144.00;;;;10111739;29;20750;-82
2023/12/11 16:13:41;;;;;;;9.40;1.60;;;;;10.00;100157.00;;;;10108013;29;20235;-82
2023/12/11 16:18:44;;;;;;;7.00;1.97;;;;;10.00;100151.00;;;;10103859;29;20237;-82
2023/12/11 16:23:45;;;;;;;6.60;2.13;;;;;10.00;100166.00;;;;10114224;29;20226;-82
2023/12/11 16:28:47;;;;;;;6.87;2.23;;;;;9.90;100162.00;;;;10115519;29;20305;-82
2023/12/11 16:33:48;;;;;;;8.67;2.23;;;;;9.80;100160.00;;;;10117623;29;20829;-81
2023/12/11 16:38:50;;;;;;;7.20;1.87;;;;;9.60;100171.00;;;;10105791;29;20235;-81
2023/12/11 16:43:52;;;;;;;7.93;1.90;;;;;9.50;100170.00;;;;10127549;29;20218;-81
2023/12/11 16:48:53;;;;;;;7.00;2.10;;;;;9.40;100178.00;;;;10111060;29;20857;-82
2023/12/11 16:53:54;;;;;;;4.93;2.00;;;;;9.40;100175.00;;;;10136485;29;20234;-82
2023/12/11 16:58:55;;;;;;;8.23;2.20;;;;;9.40;100182.00;;;;10120957;29;20222;-81
2023/12/11 17:03:57;;;;;;;5.67;1.87;;;;;9.30;100190.00;;;;10105344;29;21199;-82
2023/12/11 17:08:58;;;;;;;8.10;1.67;;;;;9.30;100199.00;;;;10130599;29;20305;-82
2023/12/11 17:13:59;;;;;;;8.23;2.60;;;;;9.30;100197.00;;;;10108834;29;20230;-82
2023/12/11 17:19:03;;;;;;;14.00;2.33;;;;;9.30;100205.00;;;;10130617;29;20234;-79
2023/12/11 17:24:05;;;;;;;7.47;2.23;;;;;9.20;100212.00;;;;10124672;29;20981;-79
2023/12/11 17:29:06;;;;;;;6.90;2.07;;;;;9.20;100216.00;;;;10121853;29;20803;-79
2023/12/11 17:34:07;;;;;;;12.17;2.20;;;;;9.20;100223.00;;;;10121480;29;20317;-82
2023/12/11 17:39:09;;;;;;;11.13;1.97;;;;;9.20;100228.00;;;;10103072;29;20242;-80
2023/12/11 17:44:10;;;;;;;5.80;3.13;;;;;9.10;100235.00;;;;10102415;29;20312;-81
2023/12/11 17:49:11;;;;;;;7.93;1.80;;;;;9.10;100241.00;;;;10094012;29;20233;-81
2023/12/11 17:54:12;;;;;;;8.40;1.83;;;;;9.10;100248.00;;;;10107939;29;20234;-79
2023/12/11 17:59:13;;;;;;;6.80;2.03;;;;;9.10;100248.00;;;;10111210;29;20958;-78
2023/12/11 18:04:15;;;;;;;5.47;1.60;;;;;9.10;100241.00;;;;10117178;29;20265;-80
2023/12/11 18:09:17;;;;;;;4.23;1.57;;;;;9.10;100243.00;;;;10104579;29;20262;-79
2023/12/11 18:14:18;;;;;;;6.87;1.37;;;;;9.10;100250.00;;;;10105523;29;20308;-79
2023/12/11 18:19:19;;;;;;;7.37;1.50;;;;;9.10;100250.00;;;;10112970;29;20838;-81
2023/12/11 18:24:20;;;;;;;5.47;1.50;;;;;9.20;100258.00;;;;10119049;29;20226;-79
2023/12/11 18:29:21;;;;;;;6.27;1.60;;;;;9.20;100261.00;;;;10103951;29;20231;-84
2023/12/11 18:34:27;;;;;;;7.17;2.60;;;;;9.20;100263.00;;;;10096416;29;20310;-84
2023/12/11 18:39:48;;;;;;;8.90;2.07;;;;;9.30;100271.00;;;;10134618;29;20234;-84
2023/12/11 18:44:49;;;;;;;7.17;2.37;;;;;9.20;100264.00;;;;10135482;29;20226;-84
2023/12/11 18:49:51;;;;;;;9.43;2.00;;;;;9.30;100268.00;;;;10123947;29;20238;-84
2023/12/11 18:54:52;;;;;;;7.00;1.90;;;;;9.30;100271.00;;;;10120997;29;20227;-84
2023/12/11 18:59:54;;;;;;;5.80;2.30;;;;;9.30;100279.00;;;;10123187;29;20233;-83
2023/12/11 19:04:55;;;;;;;13.47;2.80;;;;;9.30;100270.00;;;;10135802;29;20231;-84
2023/12/11 19:09:57;;;;;;;9.77;2.50;;;;;9.30;100276.00;;;;10109579;29;20223;-84
2023/12/11 19:14:58;;;;;;;10.30;2.50;;;;;9.30;100288.00;;;;10116584;29;20238;-84
2023/12/11 19:19:59;;;;;;;9.13;2.97;;;;;9.30;100286.00;;;;10111273;29;20238;-84
2023/12/11 19:25:01;;;;;;;8.80;2.67;;;;;9.30;100292.00;;;;10130699;29;20238;-84
2023/12/11 19:30:03;;;;;;;12.30;3.80;;;;;9.20;100289.00;;;;10105609;29;20389;-84
2023/12/11 19:35:06;;;;;;;11.13;3.10;;;;;9.20;100299.00;;;;10101601;29;20230;-84
2023/12/11 19:40:08;;;;;;;13.27;3.30;;;;;9.30;100300.00;;;;10108436;29;20234;-80
2023/12/11 19:45:09;;;;;;;11.97;3.33;;;;;9.30;100309.00;;;;10124360;29;20230;-80
2023/12/11 19:50:10;;;;;;;18.23;3.20;;;;;9.20;100304.00;;;;10134896;29;20756;-80
2023/12/11 19:55:12;;;;;;;11.43;3.47;;;;;9.20;100301.00;;;;10115656;29;20249;-81
2023/12/11 20:00:14;;;;;;;13.60;4.07;;;;;9.20;100302.00;;;;10127185;29;20234;-80
2023/12/11 20:05:15;;;;;;;13.63;4.33;;;;;9.10;100301.00;;;;10121351;29;20257;-79
2023/12/11 20:10:17;;;;;;;16.23;3.73;;;;;9.10;100297.00;;;;10119941;29;20317;-80
2023/12/11 20:15:18;;;;;;;17.53;3.70;;;;;9.20;100300.00;;;;10118865;29;20269;-79
2023/12/11 20:20:19;;;;;;;19.87;4.10;;;;;9.20;100296.00;;;;10112044;29;20234;-80
2023/12/11 20:25:20;;;;;;;15.83;4.50;;;;;9.30;100293.00;;;;10102000;29;20238;-80
2023/12/11 20:30:21;;;;;;;17.27;4.37;;;;;9.30;100295.00;;;;10121839;29;20900;-80
2023/12/11 20:35:23;;;;;;;20.23;4.60;;;;;9.30;100301.00;;;;10121583;29;20249;-80
2023/12/11 20:40:24;;;;;;;20.97;4.83;;;;;9.30;100299.00;;;;10123992;29;20238;-80
2023/12/11 20:45:28;;;;;;;14.07;4.90;;;;;9.20;100308.00;;;;10133221;29;20409;-79
2023/12/11 20:50:31;;;;;;;19.13;5.20;;;;;9.10;100307.00;;;;10123730;29;20232;-80
2023/12/11 20:55:32;;;;;;;18.47;5.17;;;;;9.10;100310.00;;;;10110064;29;20280;-80
2023/12/11 21:00:34;;;;;;;23.23;5.23;;;;;8.90;100321.00;;;;10107129;29;20242;-80
2023/12/11 21:05:37;;;;;;;25.57;5.17;;;;;8.80;100324.00;;;;10120679;29;20317;-80
2023/12/11 21:10:40;;;;;;;16.83;4.57;;;;;8.80;100322.00;;;;10101769;29;20264;-81
2023/12/11 21:15:42;;;;;;;22.40;5.83;;;;;8.70;100340.00;;;;10106851;29;20242;-80
2023/12/11 21:20:43;;;;;;;26.60;4.47;;;;;8.80;100335.00;;;;10106441;29;20229;-80
2023/12/11 21:25:44;;;;;;;19.97;4.90;;;;;8.80;100355.00;;;;10113238;29;20225;-81
2023/12/11 21:30:45;;;;;;;27.27;3.97;;;;;8.90;100362.00;;;;10113187;29;20239;-81
2023/12/11 21:35:47;;;;;;;18.53;4.10;;;;;8.90;100355.00;;;;10137093;29;20258;-80
2023/12/11 21:40:48;;;;;;;18.70;4.47;;;;;8.90;100358.00;;;;10110538;29;20266;-81
2023/12/11 21:45:49;;;;;;;27.00;4.50;;;;;9.00;100379.00;;;;10108513;29;20238;-82
2023/12/11 21:50:50;;;;;;;16.30;4.80;;;;;9.00;100374.00;;;;10121403;29;20238;-80
2023/12/11 21:55:51;;;;;;;22.23;4.70;;;;;8.90;100374.00;;;;10120009;29;20218;-80
2023/12/11 22:00:53;;;;;;;32.40;5.13;;;;;8.80;100372.00;;;;10131626;29;20858;-81
2023/12/11 22:05:54;;;;;;;23.90;4.97;;;;;8.60;100363.00;;;;10115946;29;20234;-80
2023/12/11 22:10:55;;;;;;;33.03;5.07;;;;;8.40;100348.00;;;;10118499;29;20227;-81
2023/12/11 22:15:56;;;;;;;29.07;4.97;;;;;8.20;100356.00;;;;10149563;29;20322;-81
2023/12/11 22:20:58;;;;;;;31.63;5.77;;;;;8.10;100348.00;;;;10118254;29;20241;-81
2023/12/11 22:25:59;;;;;;;34.80;6.13;;;;;7.90;100352.00;;;;10133762;29;20286;-81
2023/12/11 22:31:01;;;;;;;24.67;5.33;;;;;7.80;100347.00;;;;10121957;29;20325;-81
2023/12/11 22:36:03;;;;;;;34.93;5.97;;;;;7.70;100349.00;;;;10122326;29;20237;-81
2023/12/11 22:41:04;;;;;;;25.27;5.30;;;;;7.60;100355.00;;;;10124688;29;20230;-81
2023/12/11 22:46:06;;;;;;;36.67;6.07;;;;;7.60;100348.00;;;;10120019;29;20214;-80
2023/12/11 22:51:07;;;;;;;30.43;6.20;;;;;7.50;100356.00;;;;10126366;29;20301;-80
2023/12/11 22:56:08;;;;;;;42.60;6.87;;;;;7.40;100357.00;;;;10103136;29;20258;-80
2023/12/11 23:01:09;;;;;;;27.63;5.20;;;;;7.40;100359.00;;;;10121940;29;20231;-82
2023/12/11 23:06:12;;;;;;;31.13;6.07;;;;;7.50;100366.00;;;;10132802;29;20287;-81
2023/12/11 23:11:13;;;;;;;30.67;6.40;;;;;7.60;100366.00;;;;10130717;29;20918;-81
2023/12/11 23:16:14;;;;;;;31.63;5.27;;;;;7.60;100364.00;;;;10108140;29;20249;-81
2023/12/11 23:21:18;;;;;;;35.43;5.53;;;;;7.60;100351.00;;;;10117408;29;20246;-82
2023/12/11 23:26:20;;;;;;;27.33;6.43;;;;;7.70;100345.00;;;;10122329;29;20270;-81
2023/12/11 23:31:21;;;;;;;28.37;6.40;;;;;7.70;100345.00;;;;10138715;29;20231;-81
2023/12/11 23:36:22;;;;;;;30.70;6.47;;;;;7.70;100341.00;;;;10120562;29;20241;-81
2023/12/11 23:41:23;;;;;;;30.73;6.70;;;;;7.80;100322.00;;;;10107560;29;20234;-81
2023/12/11 23:46:24;;;;;;;31.40;6.50;;;;;7.90;100321.00;;;;10112947;29;20701;-81
2023/12/11 23:51:26;;;;;;;38.53;6.27;;;;;8.00;100312.00;;;;10096232;29;20226;-81
2023/12/11 23:56:27;;;;;;;28.30;5.87;;;;;8.20;100313.00;;;;10120358;29;20238;-81
